Murska Sobota, Slovenia

5:58 AM CET on February 11, 2016 (GMT +0100)
Ekonomska sola Murska Sobota | | Change Station
CLOSE
Current Station
Personal Weather Station
Location: Murska Sobota, MURSKA SOBOTA
Elevation: 620 ft
Nearby Weather Stations

Elev 620 ft 46.67 °N, 16.18 °E | Updated 7 seconds ago

Clear
Clear
30.2 °F
Feels Like 30 °F
N
0.0
Wind Variable Wind from SW
Gusts 0.0 mph

Today
High -- | Low -- °F
--% Chance of Precip.
Yesterday
High -- | Low -- °F
Precip. -- in
Pressure 29.68 in
Visibility -9999.0 miles
Clouds
Windchill 30 °F
Dew Point 30 °F
Humidity 99%
Rainfall 0.00 in
Snow Depth Not available.
7:06 AM 5:13 PM
Waxing Crescent, 9% visible
METAR LOWG 110450Z 33002KT CAVOK M04/M04 Q1005 R17/CLRD// NOSIG
Pressure 29.68 in
Visibility -9999.0 miles
Clouds
Windchill 30 °F
Dew Point 30 °F
Humidity 99%
Rainfall 0.00 in
Snow Depth Not available.
7:06 AM 5:13 PM
Waxing Crescent, 9% visible
METAR LOWG 110450Z 33002KT CAVOK M04/M04 Q1005 R17/CLRD// NOSIG

10-Day Weather Forecast

Almanac

Astronomy

Feb. 11, 2016 Rise Set
Actual Time
Civil Twilight
Nautical Twilight
Astronomical Twilight
Moon
Length of Visible Light
Length of Day
Tomorrow will be .
, % of the Moon is Illuminated

Today's Extremes

Country Highs Country Lows

Community

WunderPhotos

Upload Photos

1,892,015 photos uploaded!

WunderBlog® & News

Nearby

Air Quality

  Air Quality AQ Index Pollutant
Not available.

Snow Depth

Station Depth Elevation

Earthquake Activity

City Distance Mag. Time & Date
Minimum magnitude displayed is 2.5.

Coastal Water Temperatures

Place Temperature

Stations

Nearby Weather Stations

Station Location Temp. Windchill Dew Point Humidity Wind Precip. Elev Updated Type